createdAt,value
2023-02-14T00:00:49.712Z,101512.19
2023-02-14T00:03:24.135Z,101507.19
2023-02-14T00:05:56.056Z,101511.19
2023-02-14T00:08:26.405Z,101500.31
2023-02-14T00:10:54.945Z,101503.56
2023-02-14T00:13:25.847Z,101499.97
2023-02-14T00:15:58.006Z,101500.38
2023-02-14T00:18:58.391Z,101501.47
2023-02-14T00:21:38.341Z,101502.28
2023-02-14T00:24:10.439Z,101502.69
2023-02-14T00:26:45.781Z,101505.06
2023-02-14T00:29:17.604Z,101517.53
2023-02-14T00:31:56.805Z,101508.94
2023-02-14T00:34:30.130Z,101506.69
2023-02-14T00:36:59.632Z,101503.03
2023-02-14T00:39:27.970Z,101497.00
2023-02-14T00:41:59.855Z,101513.78
2023-02-14T00:44:38.977Z,101501.94
2023-02-14T00:47:11.266Z,101492.16
2023-02-14T00:49:48.969Z,101497.13
2023-02-14T00:52:26.255Z,101509.06
2023-02-14T00:54:57.370Z,101499.28
2023-02-14T00:57:30.379Z,101496.88
2023-02-14T00:59:59.692Z,101499.56
2023-02-14T01:02:42.089Z,101507.94
2023-02-14T01:05:13.073Z,101497.16
2023-02-14T01:07:55.844Z,101495.94
2023-02-14T01:10:30.379Z,101499.78
2023-02-14T01:13:03.581Z,101503.06
2023-02-14T01:15:32.931Z,101497.81
2023-02-14T01:18:11.521Z,101494.50
2023-02-14T01:20:41.167Z,101499.41
2023-02-14T01:23:12.918Z,101496.88
2023-02-14T01:25:42.060Z,101492.19
2023-02-14T01:28:15.958Z,101486.63
2023-02-14T01:30:55.602Z,101486.44
2023-02-14T01:33:39.796Z,101488.72
2023-02-14T01:36:16.245Z,101491.03
2023-02-14T01:38:49.734Z,101481.06
2023-02-14T01:41:32.234Z,101483.72
2023-02-14T01:44:03.035Z,101490.41
2023-02-14T01:46:40.428Z,101486.75
2023-02-14T01:49:18.370Z,101484.84
2023-02-14T01:51:53.269Z,101470.22
2023-02-14T01:54:26.093Z,101479.31
2023-02-14T01:56:58.877Z,101461.69
2023-02-14T01:59:37.419Z,101464.59
2023-02-14T02:02:07.112Z,101463.59
2023-02-14T02:04:58.062Z,101461.75
2023-02-14T02:07:32.434Z,101471.69
2023-02-14T02:10:06.376Z,101468.41
2023-02-14T02:12:41.975Z,101466.22
2023-02-14T02:15:18.385Z,101467.69
2023-02-14T02:17:59.244Z,101462.38
2023-02-14T02:21:23.356Z,101459.53
2023-02-14T02:24:22.573Z,101456.63
2023-02-14T02:27:31.631Z,101457.25
2023-02-14T02:30:36.632Z,101454.91
2023-02-14T02:33:47.025Z,101453.44
2023-02-14T02:36:44.016Z,101452.91
2023-02-14T02:39:30.865Z,101451.59
2023-02-14T02:42:09.456Z,101441.97
2023-02-14T02:44:46.723Z,101449.53
2023-02-14T02:47:23.616Z,101434.09
2023-02-14T02:50:23.781Z,101446.19
2023-02-14T02:53:07.987Z,101436.34
2023-02-14T02:56:02.484Z,101441.31
2023-02-14T02:58:36.324Z,101443.09
2023-02-14T03:01:13.263Z,101437.09
2023-02-14T03:04:08.551Z,101442.25
2023-02-14T03:06:45.641Z,101445.25
2023-02-14T03:09:51.032Z,101447.28
2023-02-14T03:12:44.157Z,101433.97
2023-02-14T03:15:25.731Z,101441.91
2023-02-14T03:18:04.004Z,101430.16
2023-02-14T03:20:42.689Z,101425.56
2023-02-14T03:23:18.110Z,101436.97
2023-02-14T03:25:56.366Z,101423.66
2023-02-14T03:28:35.483Z,101425.56
2023-02-14T03:31:18.396Z,101422.56
2023-02-14T03:34:01.691Z,101422.34
2023-02-14T03:36:36.043Z,101422.16
2023-02-14T03:39:15.777Z,101424.53
2023-02-14T03:41:53.556Z,101420.72
2023-02-14T03:44:40.208Z,101421.31
2023-02-14T03:47:14.859Z,101421.25
2023-02-14T03:49:47.210Z,101413.31
2023-02-14T03:52:25.769Z,101422.09
2023-02-14T03:55:00.719Z,101420.25
2023-02-14T03:57:33.333Z,101419.94
2023-02-14T04:00:09.096Z,101417.88
2023-02-14T04:02:44.317Z,101416.38
2023-02-14T04:05:22.466Z,101413.38
2023-02-14T04:07:56.493Z,101411.00
2023-02-14T04:10:33.078Z,101409.81
2023-02-14T04:13:04.582Z,101414.16
2023-02-14T04:15:42.767Z,101414.94
2023-02-14T04:18:30.531Z,101399.66
2023-02-14T04:21:02.490Z,101415.19
2023-02-14T04:23:42.114Z,101412.84
2023-02-14T04:26:17.131Z,101400.41
2023-02-14T04:28:57.306Z,101414.16
2023-02-14T04:31:32.842Z,101400.34
2023-02-14T04:34:03.723Z,101396.47
2023-02-14T04:36:34.510Z,101396.72
2023-02-14T04:39:06.302Z,101393.03
2023-02-14T04:41:43.356Z,101397.75
2023-02-14T04:44:11.896Z,101399.81
2023-02-14T04:46:43.793Z,101393.66
2023-02-14T04:49:13.063Z,101398.81
2023-02-14T04:51:43.731Z,101405.34
2023-02-14T04:54:13.368Z,101391.03
2023-02-14T04:56:44.263Z,101402.13
2023-02-14T04:59:12.365Z,101401.22
2023-02-14T05:01:47.562Z,101406.19
2023-02-14T05:04:16.999Z,101393.63
2023-02-14T05:06:46.459Z,101408.88
2023-02-14T05:09:14.662Z,101404.41
2023-02-14T05:11:48.355Z,101397.22
2023-02-14T05:14:17.973Z,101400.41
2023-02-14T05:16:55.933Z,101403.47
2023-02-14T05:19:28.184Z,101398.03
2023-02-14T05:21:57.264Z,101398.56
2023-02-14T05:24:28.403Z,101409.00
2023-02-14T05:26:57.249Z,101400.84
2023-02-14T05:29:27.887Z,101391.03
2023-02-14T05:32:02.469Z,101384.53
2023-02-14T05:34:34.402Z,101397.97
2023-02-14T05:37:06.266Z,101391.69
2023-02-14T05:39:46.046Z,101387.84
2023-02-14T05:42:18.907Z,101391.19
2023-02-14T05:44:49.837Z,101394.63
2023-02-14T05:47:27.212Z,101381.44
2023-02-14T05:50:04.175Z,101388.31
2023-02-14T05:52:34.331Z,101381.25
2023-02-14T05:55:05.882Z,101377.63
2023-02-14T05:57:37.213Z,101397.50
2023-02-14T06:00:10.358Z,101396.41
2023-02-14T06:02:57.044Z,101395.91
2023-02-14T06:05:28.876Z,101400.84
2023-02-14T06:08:00.862Z,101400.75
2023-02-14T06:10:41.932Z,101404.41
2023-02-14T06:13:16.454Z,101405.09
2023-02-14T06:15:50.472Z,101408.00
2023-02-14T06:18:30.324Z,101409.16
2023-02-14T06:21:05.666Z,101402.09
2023-02-14T06:23:42.625Z,101406.19
2023-02-14T06:26:23.761Z,101408.44
2023-02-14T06:28:59.103Z,101411.13
2023-02-14T06:31:31.086Z,101415.22
2023-02-14T06:34:13.331Z,101419.09
2023-02-14T06:36:46.262Z,101401.38
2023-02-14T06:39:18.005Z,101405.72
2023-02-14T06:41:49.383Z,101408.75
2023-02-14T06:44:19.661Z,101405.66
2023-02-14T06:47:06.968Z,101408.34
2023-02-14T06:49:40.701Z,101406.25
2023-02-14T06:52:15.100Z,101415.41
2023-02-14T06:54:46.015Z,101414.41
2023-02-14T06:57:20.084Z,101419.28
2023-02-14T07:00:04.499Z,101411.25
2023-02-14T07:02:36.716Z,101411.63
2023-02-14T07:05:14.871Z,101408.97
2023-02-14T07:07:44.126Z,101411.69
2023-02-14T07:10:17.842Z,101419.16
2023-02-14T07:12:47.430Z,101411.69
2023-02-14T07:15:16.582Z,101404.75
2023-02-14T07:17:50.165Z,101420.28
2023-02-14T07:20:28.920Z,101426.59
2023-02-14T07:23:03.459Z,101426.97
2023-02-14T07:25:33.514Z,101422.16
2023-02-14T07:28:05.914Z,101423.97
2023-02-14T07:30:36.625Z,101427.38
2023-02-14T07:33:05.527Z,101453.88
2023-02-14T07:35:44.982Z,101436.41
2023-02-14T07:38:14.410Z,101427.19
2023-02-14T07:40:47.039Z,101428.88
2023-02-14T07:43:17.915Z,101436.97
2023-02-14T07:45:51.553Z,101430.94
2023-02-14T07:48:20.952Z,101453.47
2023-02-14T07:51:00.593Z,101450.44
2023-02-14T07:53:33.562Z,101456.72
2023-02-14T07:56:07.942Z,101448.88
2023-02-14T07:58:39.704Z,101452.13
2023-02-14T08:01:10.842Z,101450.31
2023-02-14T08:03:40.127Z,101466.94
2023-02-14T08:06:12.316Z,101461.97
2023-02-14T08:08:50.641Z,101464.63
2023-02-14T08:11:36.300Z,101470.75
2023-02-14T08:14:08.350Z,101469.22
2023-02-14T08:16:40.262Z,101476.19
2023-02-14T08:19:12.435Z,101461.44
2023-02-14T08:21:54.136Z,101470.06
2023-02-14T08:24:22.233Z,101459.31
2023-02-14T08:26:50.626Z,101465.84
2023-02-14T08:29:21.323Z,101472.44
2023-02-14T08:31:50.747Z,101463.59
2023-02-14T08:34:23.106Z,101470.34
2023-02-14T08:36:57.958Z,101468.97
2023-02-14T08:39:29.437Z,101475.22
2023-02-14T08:42:01.072Z,101469.31
2023-02-14T08:44:34.262Z,101475.78
2023-02-14T08:47:05.424Z,101480.75
2023-02-14T08:49:37.128Z,101486.72
2023-02-14T08:52:16.460Z,101489.00
2023-02-14T08:54:45.650Z,101487.59
2023-02-14T08:57:19.602Z,101480.38
2023-02-14T08:59:57.443Z,101473.50
2023-02-14T09:02:27.060Z,101473.06
2023-02-14T09:04:58.826Z,101480.38
2023-02-14T09:07:44.281Z,101491.97
2023-02-14T09:10:14.009Z,101493.31
2023-02-14T09:12:45.124Z,101491.53
2023-02-14T09:15:16.051Z,101485.28
2023-02-14T09:17:46.805Z,101500.47
2023-02-14T09:20:18.606Z,101504.69
2023-02-14T09:22:56.205Z,101503.75
2023-02-14T09:25:27.194Z,101510.78
2023-02-14T09:28:01.180Z,101506.28
2023-02-14T09:30:33.335Z,101515.00
2023-02-14T09:33:05.355Z,101513.50
2023-02-14T09:35:36.740Z,101519.91
2023-02-14T09:38:28.668Z,101514.09
2023-02-14T09:41:04.733Z,101517.03
2023-02-14T09:43:37.501Z,101502.34
2023-02-14T09:46:17.068Z,101511.66
2023-02-14T09:48:47.601Z,101522.13
2023-02-14T09:51:23.532Z,101514.19
2023-02-14T09:54:04.064Z,101508.31
2023-02-14T09:56:50.788Z,101515.47
2023-02-14T09:59:30.360Z,101510.44
2023-02-14T10:02:05.523Z,101503.91
2023-02-14T10:04:39.658Z,101503.22
2023-02-14T10:07:20.464Z,101504.78
2023-02-14T10:10:10.516Z,101510.91
2023-02-14T10:12:51.337Z,101505.19
2023-02-14T10:15:32.065Z,101497.63
2023-02-14T10:18:05.680Z,101499.88
2023-02-14T10:20:38.590Z,101503.63
2023-02-14T10:23:24.105Z,101506.56
2023-02-14T10:26:04.251Z,101508.38
2023-02-14T10:28:38.112Z,101509.94
2023-02-14T10:31:24.035Z,101496.97
2023-02-14T10:33:57.829Z,101501.94
2023-02-14T10:36:37.435Z,101503.00
2023-02-14T10:39:22.973Z,101501.00
2023-02-14T10:41:58.928Z,101522.72
2023-02-14T10:44:42.786Z,101504.94
2023-02-14T10:47:30.989Z,101514.28
2023-02-14T10:50:09.669Z,101488.59
2023-02-14T10:52:44.528Z,101487.69
2023-02-14T10:55:32.055Z,101485.94
2023-02-14T10:58:06.377Z,101481.97
2023-02-14T11:00:38.144Z,101477.91
2023-02-14T11:03:11.160Z,101479.69
2023-02-14T11:05:46.447Z,101470.22
2023-02-14T11:08:20.610Z,101479.06
2023-02-14T11:10:50.312Z,101469.25
2023-02-14T11:13:39.549Z,101467.88
2023-02-14T11:16:17.465Z,101472.03
2023-02-14T11:18:48.319Z,101459.91
2023-02-14T11:21:33.496Z,101451.72
2023-02-14T11:24:11.197Z,101448.81
2023-02-14T11:26:49.235Z,101447.72
2023-02-14T11:29:32.781Z,101460.81
2023-02-14T11:32:09.330Z,101451.22
2023-02-14T11:34:40.303Z,101459.66
2023-02-14T11:37:27.205Z,101465.06
2023-02-14T11:39:57.999Z,101458.44
2023-02-14T11:42:43.314Z,101445.25
2023-02-14T11:48:31.483Z,101438.66
2023-02-14T11:51:09.073Z,101443.19
2023-02-14T11:53:48.969Z,101444.34
2023-02-14T11:56:22.432Z,101447.72
2023-02-14T11:58:58.456Z,101440.16
2023-02-14T12:01:29.509Z,101430.91
2023-02-14T12:04:08.351Z,101431.31
2023-02-14T12:06:39.296Z,101435.81
2023-02-14T12:09:36.284Z,101429.81
2023-02-14T12:12:17.900Z,101423.94
2023-02-14T12:14:46.375Z,101424.13
2023-02-14T12:17:37.639Z,101415.03
2023-02-14T12:20:30.049Z,101413.75
2023-02-14T12:23:10.099Z,101407.66
2023-02-14T12:25:51.429Z,101402.34
2023-02-14T12:28:25.802Z,101408.81
2023-02-14T12:30:54.145Z,101392.81
2023-02-14T12:33:28.437Z,101403.50
2023-02-14T12:36:10.392Z,101396.16
2023-02-14T12:38:51.017Z,101401.88
2023-02-14T12:41:46.325Z,101404.16
2023-02-14T12:44:22.873Z,101399.28
2023-02-14T12:47:05.153Z,101399.69
2023-02-14T12:50:12.468Z,101400.78
2023-02-14T12:53:05.122Z,101398.19
2023-02-14T12:55:54.520Z,101400.94
2023-02-14T12:58:44.349Z,101391.78
2023-02-14T13:01:42.002Z,101393.34
2023-02-14T13:04:53.164Z,101397.19
2023-02-14T13:07:40.640Z,101400.25
2023-02-14T13:10:46.786Z,101393.28
2023-02-14T13:13:26.319Z,101401.41
2023-02-14T13:16:06.290Z,101394.38
2023-02-14T13:18:49.315Z,101392.66
2023-02-14T13:21:24.532Z,101401.16
2023-02-14T13:24:05.804Z,101395.16
2023-02-14T13:26:42.912Z,101387.19
2023-02-14T13:29:18.450Z,101387.97
2023-02-14T13:31:52.223Z,101393.69
2023-02-14T13:34:28.412Z,101372.34
2023-02-14T13:36:59.487Z,101373.38
2023-02-14T13:39:37.804Z,101380.41
2023-02-14T13:42:11.255Z,101387.50
2023-02-14T13:44:50.662Z,101378.28
2023-02-14T13:47:22.476Z,101377.50
2023-02-14T13:49:55.434Z,101379.22
2023-02-14T13:52:46.916Z,101377.69
2023-02-14T13:55:22.940Z,101382.41
2023-02-14T13:58:07.667Z,101375.25
2023-02-14T14:00:59.739Z,101381.25
2023-02-14T14:03:56.515Z,101384.13
2023-02-14T14:06:27.373Z,101376.94
2023-02-14T14:09:02.525Z,101373.91
2023-02-14T14:11:53.291Z,101378.75
2023-02-14T14:14:45.128Z,101372.13
2023-02-14T14:17:28.720Z,101369.88
2023-02-14T14:20:00.856Z,101372.19
2023-02-14T14:22:33.812Z,101367.25
2023-02-14T14:25:18.775Z,101364.41
2023-02-14T14:27:49.977Z,101360.47
2023-02-14T14:30:28.483Z,101354.88
2023-02-14T14:32:57.322Z,101360.56
2023-02-14T14:35:28.634Z,101349.31
2023-02-14T14:38:08.368Z,101342.84
2023-02-14T14:40:40.178Z,101341.91
2023-02-14T14:43:14.131Z,101347.53
2023-02-14T14:45:49.652Z,101341.81
2023-02-14T14:48:24.670Z,101343.38
2023-02-14T14:50:53.954Z,101342.84
2023-02-14T14:53:27.708Z,101334.09
2023-02-14T14:56:08.996Z,101336.31
2023-02-14T14:58:49.846Z,101330.31
2023-02-14T15:01:42.639Z,101329.31
2023-02-14T15:04:16.140Z,101329.78
2023-02-14T15:06:48.526Z,101326.22
2023-02-14T15:09:24.041Z,101325.56
2023-02-14T15:12:12.900Z,101324.69
2023-02-14T15:14:43.550Z,101321.19
2023-02-14T15:17:35.743Z,101319.94
2023-02-14T15:20:06.742Z,101333.28
2023-02-14T15:22:46.558Z,101323.44
2023-02-14T15:25:24.176Z,101330.97
2023-02-14T15:28:01.199Z,101329.53
2023-02-14T15:30:36.854Z,101327.44
2023-02-14T15:33:16.989Z,101333.78
2023-02-14T15:35:50.303Z,101332.75
2023-02-14T15:38:24.823Z,101338.72
2023-02-14T15:40:56.035Z,101330.63
2023-02-14T15:43:33.148Z,101332.88
2023-02-14T15:46:44.204Z,101339.91
2023-02-14T15:49:27.071Z,101340.25
2023-02-14T15:52:00.392Z,101338.41
2023-02-14T15:54:34.132Z,101337.28
2023-02-14T15:57:12.851Z,101344.78
2023-02-14T15:59:47.869Z,101344.72
2023-02-14T16:02:32.501Z,101349.66
2023-02-14T16:05:21.961Z,101338.84
2023-02-14T16:08:05.471Z,101348.44
2023-02-14T16:10:38.008Z,101356.44
2023-02-14T16:13:22.378Z,101354.47
2023-02-14T16:15:59.161Z,101351.81
2023-02-14T16:18:38.218Z,101356.97
2023-02-14T16:21:25.669Z,101363.03
2023-02-14T16:24:14.862Z,101357.47
2023-02-14T16:26:45.629Z,101365.06
2023-02-14T16:29:27.816Z,101373.44
2023-02-14T16:32:17.252Z,101367.72
2023-02-14T16:34:52.260Z,101371.47
2023-02-14T16:37:32.366Z,101369.34
2023-02-14T16:40:06.943Z,101374.44
2023-02-14T16:42:43.784Z,101370.16
2023-02-14T16:45:21.091Z,101367.06
2023-02-14T16:47:54.096Z,101371.94
2023-02-14T16:50:26.265Z,101378.66
2023-02-14T16:52:58.622Z,101372.34
2023-02-14T16:55:51.214Z,101379.09
2023-02-14T16:58:23.640Z,101382.22
2023-02-14T17:00:56.284Z,101375.34
2023-02-14T17:03:32.405Z,101382.34
2023-02-14T17:06:21.215Z,101368.28
2023-02-14T17:09:03.481Z,101382.94
2023-02-14T17:11:46.688Z,101382.72
2023-02-14T17:14:33.870Z,101379.94
2023-02-14T17:17:03.800Z,101381.88
2023-02-14T17:19:45.478Z,101385.94
2023-02-14T17:22:17.098Z,101383.47
2023-02-14T17:24:57.174Z,101379.34
2023-02-14T17:27:41.670Z,101374.72
2023-02-14T17:30:20.829Z,101374.47
2023-02-14T17:32:52.814Z,101379.31
2023-02-14T17:35:37.651Z,101383.28
2023-02-14T17:38:33.809Z,101379.97
2023-02-14T17:41:28.002Z,101385.25
2023-02-14T17:44:02.720Z,101389.22
2023-02-14T17:46:34.324Z,101385.31
2023-02-14T17:49:20.364Z,101388.44
2023-02-14T17:52:04.771Z,101380.41
2023-02-14T17:54:43.124Z,101374.94
2023-02-14T17:57:30.387Z,101376.78
2023-02-14T18:00:06.675Z,101378.03
2023-02-14T18:03:04.724Z,101387.34
2023-02-14T18:05:42.934Z,101378.59
2023-02-14T18:08:25.908Z,101376.66
2023-02-14T18:11:13.813Z,101375.66
2023-02-14T18:13:48.390Z,101378.59
2023-02-14T18:16:30.434Z,101381.28
2023-02-14T18:19:16.913Z,101380.97
2023-02-14T18:21:58.287Z,101372.38
2023-02-14T18:24:45.635Z,101366.22
2023-02-14T18:27:24.117Z,101376.63
2023-02-14T18:30:11.607Z,101364.66
2023-02-14T18:32:50.155Z,101356.59
2023-02-14T18:35:36.112Z,101365.94
2023-02-14T18:38:12.087Z,101355.78
2023-02-14T18:40:56.285Z,101367.72
2023-02-14T18:43:34.471Z,101366.38
2023-02-14T18:46:17.190Z,101354.56
2023-02-14T18:49:01.586Z,101349.75
2023-02-14T18:51:49.552Z,101355.56
2023-02-14T18:54:31.261Z,101349.13
2023-02-14T18:57:16.177Z,101342.41
2023-02-14T18:59:49.601Z,101342.50
2023-02-14T19:02:38.953Z,101343.97
2023-02-14T19:05:14.456Z,101350.75
2023-02-14T19:07:56.981Z,101349.81
2023-02-14T19:10:28.414Z,101350.25
2023-02-14T19:13:20.952Z,101352.19
2023-02-14T19:15:57.177Z,101353.28
2023-02-14T19:18:40.072Z,101345.59
2023-02-14T19:21:34.108Z,101350.63
2023-02-14T19:24:09.103Z,101350.44
2023-02-14T19:26:56.060Z,101345.66
2023-02-14T19:29:44.113Z,101354.69
2023-02-14T19:32:23.378Z,101344.31
2023-02-14T19:35:28.547Z,101342.50
2023-02-14T19:38:08.006Z,101341.31
2023-02-14T19:40:42.139Z,101343.03
2023-02-14T19:43:31.941Z,101345.28
2023-02-14T19:46:17.119Z,101337.19
2023-02-14T19:49:01.923Z,101327.69
2023-02-14T19:51:52.239Z,101342.16
2023-02-14T19:54:30.712Z,101339.44
2023-02-14T19:57:08.456Z,101338.88
2023-02-14T19:59:40.324Z,101334.56
2023-02-14T20:02:23.289Z,101333.50
2023-02-14T20:05:05.393Z,101330.97
2023-02-14T20:08:25.038Z,101335.59
2023-02-14T20:10:58.868Z,101337.38
2023-02-14T20:13:36.735Z,101341.69
2023-02-14T20:16:25.223Z,101343.75
2023-02-14T20:18:59.554Z,101337.25
2023-02-14T20:21:31.358Z,101335.09
2023-02-14T20:24:16.412Z,101333.03
2023-02-14T20:27:03.314Z,101337.38
2023-02-14T20:30:01.665Z,101336.22
2023-02-14T20:32:38.741Z,101334.69
2023-02-14T20:35:18.266Z,101323.44
2023-02-14T20:38:05.988Z,101325.69
2023-02-14T20:41:08.881Z,101324.91
2023-02-14T20:43:52.085Z,101314.38
2023-02-14T20:49:31.172Z,101313.53
2023-02-14T20:52:22.004Z,101316.41
2023-02-14T20:54:55.127Z,101323.00
2023-02-14T20:57:36.319Z,101314.13
2023-02-14T21:00:29.422Z,101322.84
2023-02-14T21:03:12.139Z,101317.34
2023-02-14T21:05:58.281Z,101318.28
2023-02-14T21:08:34.708Z,101316.38
2023-02-14T21:11:19.300Z,101317.97
2023-02-14T21:14:00.693Z,101310.31
2023-02-14T21:16:38.292Z,101316.16
2023-02-14T21:19:24.176Z,101316.28
2023-02-14T21:24:45.554Z,101313.56
2023-02-14T21:27:43.432Z,101321.69
2023-02-14T21:30:29.166Z,101310.81
2023-02-14T21:33:15.007Z,101312.00
2023-02-14T21:36:01.314Z,101301.94
2023-02-14T21:38:38.986Z,101309.34
2023-02-14T21:44:38.885Z,101299.44
2023-02-14T21:47:37.641Z,101299.16
2023-02-14T21:50:31.331Z,101290.28
2023-02-14T21:53:17.840Z,101292.91
2023-02-14T21:55:56.145Z,101294.94
2023-02-14T22:01:23.601Z,101288.66
2023-02-14T22:04:12.333Z,101289.75
2023-02-14T22:06:45.651Z,101294.22
2023-02-14T22:09:18.725Z,101292.06
2023-02-14T22:11:51.946Z,101284.41
2023-02-14T22:14:26.616Z,101276.16
2023-02-14T22:16:59.366Z,101278.69
2023-02-14T22:19:41.354Z,101274.03
2023-02-14T22:22:12.241Z,101269.28
2023-02-14T22:24:42.275Z,101275.00
2023-02-14T22:27:19.683Z,101277.25
2023-02-14T22:29:47.831Z,101279.41
2023-02-14T22:32:19.819Z,101274.38
2023-02-14T22:34:50.764Z,101281.19
2023-02-14T22:37:23.576Z,101281.06
2023-02-14T22:40:02.260Z,101280.03
2023-02-14T22:42:38.640Z,101273.81
2023-02-14T22:45:18.807Z,101279.34
2023-02-14T22:47:56.808Z,101273.72
2023-02-14T22:50:39.403Z,101272.97
2023-02-14T22:53:07.951Z,101271.22
2023-02-14T22:55:43.775Z,101274.66
2023-02-14T22:58:14.979Z,101276.06
2023-02-14T23:00:45.564Z,101282.03
2023-02-14T23:03:14.457Z,101277.50
2023-02-14T23:05:45.172Z,101282.44
2023-02-14T23:08:16.597Z,101275.38
2023-02-14T23:10:52.563Z,101280.16
2023-02-14T23:13:38.263Z,101282.44
2023-02-14T23:16:25.237Z,101280.47
2023-02-14T23:19:12.304Z,101272.41
2023-02-14T23:22:05.844Z,101273.19
2023-02-14T23:24:39.945Z,101276.25
2023-02-14T23:27:10.406Z,101264.06
2023-02-14T23:29:45.158Z,101265.94
2023-02-14T23:32:25.275Z,101272.69
2023-02-14T23:34:56.101Z,101267.63
2023-02-14T23:37:49.638Z,101256.53
2023-02-14T23:40:25.409Z,101257.59
2023-02-14T23:42:57.480Z,101252.91
2023-02-14T23:45:42.287Z,101258.31
2023-02-14T23:48:13.627Z,101254.81
2023-02-14T23:50:41.959Z,101246.09
2023-02-14T23:53:15.436Z,101257.72
2023-02-14T23:55:43.960Z,101245.34
2023-02-14T23:58:23.628Z,101257.06
